sensor_id;sensor_type;location;lat;lon;timestamp;P1;durP1;ratioP1;P2;durP2;ratioP2
16426;SDS011;8322;-33.900;151.170;2024-01-15T00:01:42;22.02;;;3.53;;
16426;SDS011;8322;-33.900;151.170;2024-01-15T00:04:12;20.85;;;3.38;;
16426;SDS011;8322;-33.900;151.170;2024-01-15T00:06:43;23.25;;;3.22;;
16426;SDS011;8322;-33.900;151.170;2024-01-15T00:09:12;19.10;;;3.10;;
16426;SDS011;8322;-33.900;151.170;2024-01-15T00:11:42;19.35;;;3.20;;
16426;SDS011;8322;-33.900;151.170;2024-01-15T00:14:12;18.60;;;2.85;;
16426;SDS011;8322;-33.900;151.170;2024-01-15T00:16:45;21.17;;;3.83;;
16426;SDS011;8322;-33.900;151.170;2024-01-15T00:19:16;25.65;;;3.40;;
16426;SDS011;8322;-33.900;151.170;2024-01-15T00:21:47;18.90;;;2.70;;
16426;SDS011;8322;-33.900;151.170;2024-01-15T00:24:17;22.65;;;3.38;;
16426;SDS011;8322;-33.900;151.170;2024-01-15T00:26:47;21.92;;;3.38;;
16426;SDS011;8322;-33.900;151.170;2024-01-15T00:29:16;19.92;;;3.67;;
16426;SDS011;8322;-33.900;151.170;2024-01-15T00:31:46;20.25;;;3.38;;
16426;SDS011;8322;-33.900;151.170;2024-01-15T00:34:15;24.23;;;3.53;;
16426;SDS011;8322;-33.900;151.170;2024-01-15T00:36:44;25.70;;;3.58;;
16426;SDS011;8322;-33.900;151.170;2024-01-15T00:39:16;24.10;;;2.88;;
16426;SDS011;8322;-33.900;151.170;2024-01-15T00:41:45;21.95;;;3.08;;
16426;SDS011;8322;-33.900;151.170;2024-01-15T00:44:15;19.20;;;2.40;;
16426;SDS011;8322;-33.900;151.170;2024-01-15T00:46:44;22.08;;;3.47;;
16426;SDS011;8322;-33.900;151.170;2024-01-15T00:49:14;24.75;;;2.78;;
16426;SDS011;8322;-33.900;151.170;2024-01-15T00:51:44;19.67;;;2.78;;
16426;SDS011;8322;-33.900;151.170;2024-01-15T00:54:13;19.85;;;2.90;;
16426;SDS011;8322;-33.900;151.170;2024-01-15T00:56:44;18.75;;;2.65;;
16426;SDS011;8322;-33.900;151.170;2024-01-15T00:59:14;20.10;;;2.72;;
16426;SDS011;8322;-33.900;151.170;2024-01-15T01:01:43;16.98;;;2.78;;
16426;SDS011;8322;-33.900;151.170;2024-01-15T01:04:13;17.50;;;2.97;;
16426;SDS011;8322;-33.900;151.170;2024-01-15T01:06:42;23.35;;;3.63;;
16426;SDS011;8322;-33.900;151.170;2024-01-15T01:09:12;23.60;;;3.30;;
16426;SDS011;8322;-33.900;151.170;2024-01-15T01:11:41;23.70;;;3.20;;
16426;SDS011;8322;-33.900;151.170;2024-01-15T01:14:13;17.50;;;2.65;;
16426;SDS011;8322;-33.900;151.170;2024-01-15T01:16:42;16.10;;;3.22;;
16426;SDS011;8322;-33.900;151.170;2024-01-15T01:19:12;22.70;;;3.10;;
16426;SDS011;8322;-33.900;151.170;2024-01-15T01:21:41;23.35;;;3.35;;
16426;SDS011;8322;-33.900;151.170;2024-01-15T01:24:11;19.23;;;3.03;;
16426;SDS011;8322;-33.900;151.170;2024-01-15T01:26:40;22.50;;;3.33;;
16426;SDS011;8322;-33.900;151.170;2024-01-15T01:29:13;17.70;;;3.05;;
16426;SDS011;8322;-33.900;151.170;2024-01-15T01:31:43;23.10;;;3.33;;
16426;SDS011;8322;-33.900;151.170;2024-01-15T01:40:19;19.42;;;2.63;;
16426;SDS011;8322;-33.900;151.170;2024-01-15T01:42:52;24.10;;;3.15;;
16426;SDS011;8322;-33.900;151.170;2024-01-15T01:45:23;21.25;;;2.92;;
16426;SDS011;8322;-33.900;151.170;2024-01-15T01:47:53;22.67;;;3.53;;
16426;SDS011;8322;-33.900;151.170;2024-01-15T01:50:22;19.48;;;2.88;;
16426;SDS011;8322;-33.900;151.170;2024-01-15T01:52:52;21.38;;;2.35;;
16426;SDS011;8322;-33.900;151.170;2024-01-15T01:55:21;17.65;;;3.45;;
16426;SDS011;8322;-33.900;151.170;2024-01-15T01:57:53;21.10;;;2.53;;
16426;SDS011;8322;-33.900;151.170;2024-01-15T02:00:24;18.92;;;3.00;;
16426;SDS011;8322;-33.900;151.170;2024-01-15T04:31:23;12.85;;;2.00;;
16426;SDS011;8322;-33.900;151.170;2024-01-15T04:33:52;14.13;;;2.17;;
16426;SDS011;8322;-33.900;151.170;2024-01-15T04:36:22;14.88;;;2.40;;
16426;SDS011;8322;-33.900;151.170;2024-01-15T04:38:51;20.67;;;2.28;;
16426;SDS011;8322;-33.900;151.170;2024-01-15T04:41:21;14.77;;;2.10;;
16426;SDS011;8322;-33.900;151.170;2024-01-15T04:43:50;17.17;;;2.15;;
16426;SDS011;8322;-33.900;151.170;2024-01-15T04:46:20;12.63;;;2.10;;
16426;SDS011;8322;-33.900;151.170;2024-01-15T04:48:51;14.85;;;1.85;;
16426;SDS011;8322;-33.900;151.170;2024-01-15T04:51:20;14.52;;;2.30;;
16426;SDS011;8322;-33.900;151.170;2024-01-15T04:53:50;10.32;;;1.88;;
16426;SDS011;8322;-33.900;151.170;2024-01-15T04:56:19;17.10;;;2.28;;
16426;SDS011;8322;-33.900;151.170;2024-01-15T04:58:49;12.68;;;2.30;;
16426;SDS011;8322;-33.900;151.170;2024-01-15T05:01:18;17.10;;;2.10;;
16426;SDS011;8322;-33.900;151.170;2024-01-15T05:03:48;16.63;;;2.28;;
16426;SDS011;8322;-33.900;151.170;2024-01-15T05:06:19;14.55;;;2.47;;
16426;SDS011;8322;-33.900;151.170;2024-01-15T05:08:48;19.05;;;2.80;;
16426;SDS011;8322;-33.900;151.170;2024-01-15T05:11:18;14.48;;;2.10;;
16426;SDS011;8322;-33.900;151.170;2024-01-15T05:13:47;15.38;;;2.13;;
16426;SDS011;8322;-33.900;151.170;2024-01-15T05:16:17;12.30;;;2.10;;
16426;SDS011;8322;-33.900;151.170;2024-01-15T05:18:49;14.20;;;2.05;;
16426;SDS011;8322;-33.900;151.170;2024-01-15T05:21:20;14.88;;;2.30;;
16426;SDS011;8322;-33.900;151.170;2024-01-15T05:23:50;14.40;;;2.33;;
16426;SDS011;8322;-33.900;151.170;2024-01-15T05:26:19;11.48;;;2.05;;
16426;SDS011;8322;-33.900;151.170;2024-01-15T05:28:48;18.38;;;2.20;;
16426;SDS011;8322;-33.900;151.170;2024-01-15T05:31:18;16.90;;;2.25;;
16426;SDS011;8322;-33.900;151.170;2024-01-15T05:33:47;13.07;;;2.33;;
16426;SDS011;8322;-33.900;151.170;2024-01-15T05:36:17;12.20;;;2.10;;
16426;SDS011;8322;-33.900;151.170;2024-01-15T05:38:48;15.65;;;2.55;;
16426;SDS011;8322;-33.900;151.170;2024-01-15T05:41:18;20.13;;;2.63;;
16426;SDS011;8322;-33.900;151.170;2024-01-15T05:43:47;14.20;;;2.47;;
16426;SDS011;8322;-33.900;151.170;2024-01-15T05:46:17;16.30;;;2.25;;
16426;SDS011;8322;-33.900;151.170;2024-01-15T05:48:46;16.95;;;2.75;;
16426;SDS011;8322;-33.900;151.170;2024-01-15T05:51:16;14.05;;;2.20;;
16426;SDS011;8322;-33.900;151.170;2024-01-15T05:53:45;12.93;;;2.53;;
16426;SDS011;8322;-33.900;151.170;2024-01-15T05:56:17;17.02;;;2.50;;
16426;SDS011;8322;-33.900;151.170;2024-01-15T05:58:46;15.40;;;2.30;;
16426;SDS011;8322;-33.900;151.170;2024-01-15T06:01:15;14.95;;;2.30;;
16426;SDS011;8322;-33.900;151.170;2024-01-15T06:03:45;16.50;;;2.80;;
16426;SDS011;8322;-33.900;151.170;2024-01-15T06:06:14;17.65;;;2.83;;
16426;SDS011;8322;-33.900;151.170;2024-01-15T06:08:44;15.02;;;2.47;;
16426;SDS011;8322;-33.900;151.170;2024-01-15T06:11:13;14.98;;;2.67;;
16426;SDS011;8322;-33.900;151.170;2024-01-15T06:13:45;14.05;;;2.50;;
16426;SDS011;8322;-33.900;151.170;2024-01-15T06:16:14;20.27;;;2.42;;
16426;SDS011;8322;-33.900;151.170;2024-01-15T06:18:46;13.82;;;2.15;;
16426;SDS011;8322;-33.900;151.170;2024-01-15T06:21:15;14.13;;;2.35;;
16426;SDS011;8322;-33.900;151.170;2024-01-15T06:23:45;16.90;;;2.20;;
16426;SDS011;8322;-33.900;151.170;2024-01-15T06:26:14;12.98;;;1.90;;
16426;SDS011;8322;-33.900;151.170;2024-01-15T06:28:46;12.57;;;2.47;;
16426;SDS011;8322;-33.900;151.170;2024-01-15T06:31:15;16.80;;;2.38;;
16426;SDS011;8322;-33.900;151.170;2024-01-15T06:33:45;13.20;;;2.30;;
16426;SDS011;8322;-33.900;151.170;2024-01-15T06:36:14;10.48;;;1.95;;
16426;SDS011;8322;-33.900;151.170;2024-01-15T06:38:44;11.55;;;2.00;;
16426;SDS011;8322;-33.900;151.170;2024-01-15T06:41:13;14.05;;;1.90;;
16426;SDS011;8322;-33.900;151.170;2024-01-15T06:43:43;14.30;;;1.98;;
16426;SDS011;8322;-33.900;151.170;2024-01-15T06:46:14;12.77;;;1.98;;
16426;SDS011;8322;-33.900;151.170;2024-01-15T06:48:48;11.52;;;1.95;;
16426;SDS011;8322;-33.900;151.170;2024-01-15T06:51:18;11.15;;;2.00;;
16426;SDS011;8322;-33.900;151.170;2024-01-15T06:53:47;13.63;;;1.95;;
16426;SDS011;8322;-33.900;151.170;2024-01-15T06:56:17;10.23;;;2.22;;
16426;SDS011;8322;-33.900;151.170;2024-01-15T06:58:46;12.23;;;1.70;;
16426;SDS011;8322;-33.900;151.170;2024-01-15T07:01:18;11.25;;;1.67;;
16426;SDS011;8322;-33.900;151.170;2024-01-15T07:03:47;10.10;;;1.63;;
16426;SDS011;8322;-33.900;151.170;2024-01-15T07:06:17;14.40;;;2.42;;
16426;SDS011;8322;-33.900;151.170;2024-01-15T07:08:47;9.88;;;2.00;;
16426;SDS011;8322;-33.900;151.170;2024-01-15T07:11:16;12.23;;;1.75;;
16426;SDS011;8322;-33.900;151.170;2024-01-15T07:13:46;11.85;;;1.98;;
16426;SDS011;8322;-33.900;151.170;2024-01-15T07:16:17;17.20;;;2.63;;
16426;SDS011;8322;-33.900;151.170;2024-01-15T07:18:46;10.93;;;2.40;;
16426;SDS011;8322;-33.900;151.170;2024-01-15T07:21:16;12.73;;;2.05;;
16426;SDS011;8322;-33.900;151.170;2024-01-15T07:23:45;10.60;;;1.90;;
16426;SDS011;8322;-33.900;151.170;2024-01-15T07:26:15;11.10;;;2.00;;
16426;SDS011;8322;-33.900;151.170;2024-01-15T07:28:44;12.93;;;1.80;;
16426;SDS011;8322;-33.900;151.170;2024-01-15T07:31:15;13.70;;;1.80;;
16426;SDS011;8322;-33.900;151.170;2024-01-15T07:33:47;17.13;;;1.90;;
16426;SDS011;8322;-33.900;151.170;2024-01-15T07:36:16;13.23;;;2.40;;
16426;SDS011;8322;-33.900;151.170;2024-01-15T07:38:45;15.18;;;1.90;;
16426;SDS011;8322;-33.900;151.170;2024-01-15T07:41:15;14.23;;;1.92;;
16426;SDS011;8322;-33.900;151.170;2024-01-15T07:43:44;12.57;;;2.10;;
16426;SDS011;8322;-33.900;151.170;2024-01-15T07:46:14;12.70;;;1.83;;
16426;SDS011;8322;-33.900;151.170;2024-01-15T07:48:43;12.43;;;1.90;;
16426;SDS011;8322;-33.900;151.170;2024-01-15T07:51:15;18.17;;;2.05;;
16426;SDS011;8322;-33.900;151.170;2024-01-15T07:53:44;13.90;;;2.28;;
16426;SDS011;8322;-33.900;151.170;2024-01-15T07:56:14;10.57;;;2.30;;
16426;SDS011;8322;-33.900;151.170;2024-01-15T07:58:43;13.98;;;1.90;;
16426;SDS011;8322;-33.900;151.170;2024-01-15T08:01:13;14.10;;;2.50;;
16426;SDS011;8322;-33.900;151.170;2024-01-15T08:03:43;11.95;;;2.10;;
16426;SDS011;8322;-33.900;151.170;2024-01-15T08:06:14;16.08;;;2.10;;
16426;SDS011;8322;-33.900;151.170;2024-01-15T08:08:44;11.93;;;2.35;;
16426;SDS011;8322;-33.900;151.170;2024-01-15T08:11:13;14.95;;;2.25;;
16426;SDS011;8322;-33.900;151.170;2024-01-15T08:13:45;10.52;;;2.13;;
16426;SDS011;8322;-33.900;151.170;2024-01-15T08:16:15;10.30;;;2.25;;
16426;SDS011;8322;-33.900;151.170;2024-01-15T08:18:44;16.40;;;2.97;;
16426;SDS011;8322;-33.900;151.170;2024-01-15T08:21:16;17.50;;;2.72;;
16426;SDS011;8322;-33.900;151.170;2024-01-15T08:23:45;13.55;;;2.20;;
16426;SDS011;8322;-33.900;151.170;2024-01-15T08:26:15;12.65;;;2.17;;
16426;SDS011;8322;-33.900;151.170;2024-01-15T08:28:44;11.27;;;2.47;;
16426;SDS011;8322;-33.900;151.170;2024-01-15T08:31:13;10.35;;;2.00;;
16426;SDS011;8322;-33.900;151.170;2024-01-15T08:33:43;13.55;;;1.83;;
16426;SDS011;8322;-33.900;151.170;2024-01-15T08:36:13;11.52;;;2.08;;
16426;SDS011;8322;-33.900;151.170;2024-01-15T08:38:44;10.80;;;2.30;;
16426;SDS011;8322;-33.900;151.170;2024-01-15T08:41:13;13.68;;;2.10;;
16426;SDS011;8322;-33.900;151.170;2024-01-15T08:43:43;13.98;;;2.42;;
16426;SDS011;8322;-33.900;151.170;2024-01-15T08:46:12;16.00;;;2.90;;
16426;SDS011;8322;-33.900;151.170;2024-01-15T08:48:42;14.40;;;2.10;;
16426;SDS011;8322;-33.900;151.170;2024-01-15T08:51:11;14.27;;;2.20;;
16426;SDS011;8322;-33.900;151.170;2024-01-15T08:53:41;13.57;;;2.10;;
16426;SDS011;8322;-33.900;151.170;2024-01-15T08:56:12;7.40;;;1.75;;
16426;SDS011;8322;-33.900;151.170;2024-01-15T08:58:42;14.63;;;2.17;;
16426;SDS011;8322;-33.900;151.170;2024-01-15T09:01:12;14.10;;;2.25;;
16426;SDS011;8322;-33.900;151.170;2024-01-15T09:03:41;12.68;;;2.00;;
16426;SDS011;8322;-33.900;151.170;2024-01-15T09:06:11;11.77;;;2.05;;
16426;SDS011;8322;-33.900;151.170;2024-01-15T09:08:40;13.95;;;2.75;;
16426;SDS011;8322;-33.900;151.170;2024-01-15T09:11:09;11.43;;;2.20;;
16426;SDS011;8322;-33.900;151.170;2024-01-15T09:13:41;12.88;;;2.70;;
16426;SDS011;8322;-33.900;151.170;2024-01-15T09:16:10;13.57;;;2.90;;
16426;SDS011;8322;-33.900;151.170;2024-01-15T09:18:40;15.27;;;2.33;;
16426;SDS011;8322;-33.900;151.170;2024-01-15T09:21:09;13.82;;;2.08;;
16426;SDS011;8322;-33.900;151.170;2024-01-15T09:23:39;18.70;;;2.80;;
16426;SDS011;8322;-33.900;151.170;2024-01-15T09:26:08;14.90;;;2.30;;
16426;SDS011;8322;-33.900;151.170;2024-01-15T09:28:38;14.23;;;2.67;;
16426;SDS011;8322;-33.900;151.170;2024-01-15T09:31:12;12.18;;;2.90;;
16426;SDS011;8322;-33.900;151.170;2024-01-15T09:33:43;17.83;;;2.90;;
16426;SDS011;8322;-33.900;151.170;2024-01-15T09:36:12;16.90;;;2.78;;
16426;SDS011;8322;-33.900;151.170;2024-01-15T09:38:42;17.08;;;2.60;;
16426;SDS011;8322;-33.900;151.170;2024-01-15T09:41:11;22.50;;;2.60;;
16426;SDS011;8322;-33.900;151.170;2024-01-15T09:43:41;17.20;;;2.85;;
16426;SDS011;8322;-33.900;151.170;2024-01-15T09:46:12;20.70;;;2.88;;
16426;SDS011;8322;-33.900;151.170;2024-01-15T09:48:42;16.17;;;2.33;;
16426;SDS011;8322;-33.900;151.170;2024-01-15T09:51:12;14.90;;;2.75;;
16426;SDS011;8322;-33.900;151.170;2024-01-15T09:53:41;14.80;;;2.33;;
16426;SDS011;8322;-33.900;151.170;2024-01-15T09:56:12;16.05;;;2.30;;
16426;SDS011;8322;-33.900;151.170;2024-01-15T09:58:42;14.35;;;2.67;;
16426;SDS011;8322;-33.900;151.170;2024-01-15T10:01:13;16.23;;;2.40;;
16426;SDS011;8322;-33.900;151.170;2024-01-15T10:03:43;16.38;;;2.45;;
16426;SDS011;8322;-33.900;151.170;2024-01-15T10:06:14;15.85;;;2.00;;
16426;SDS011;8322;-33.900;151.170;2024-01-15T10:08:45;13.65;;;2.55;;
16426;SDS011;8322;-33.900;151.170;2024-01-15T10:11:16;13.38;;;2.28;;
16426;SDS011;8322;-33.900;151.170;2024-01-15T10:13:46;19.63;;;2.60;;
16426;SDS011;8322;-33.900;151.170;2024-01-15T10:16:20;11.25;;;2.15;;
16426;SDS011;8322;-33.900;151.170;2024-01-15T10:18:49;17.10;;;2.88;;
16426;SDS011;8322;-33.900;151.170;2024-01-15T10:21:19;20.83;;;2.63;;
16426;SDS011;8322;-33.900;151.170;2024-01-15T10:23:49;17.45;;;2.78;;
16426;SDS011;8322;-33.900;151.170;2024-01-15T10:26:18;15.18;;;2.80;;
16426;SDS011;8322;-33.900;151.170;2024-01-15T10:28:49;15.82;;;2.60;;
16426;SDS011;8322;-33.900;151.170;2024-01-15T10:31:22;14.93;;;2.70;;
16426;SDS011;8322;-33.900;151.170;2024-01-15T10:33:51;13.57;;;2.60;;
16426;SDS011;8322;-33.900;151.170;2024-01-15T10:36:21;12.75;;;2.97;;
16426;SDS011;8322;-33.900;151.170;2024-01-15T10:38:51;14.07;;;2.45;;
16426;SDS011;8322;-33.900;151.170;2024-01-15T10:41:21;12.25;;;2.13;;
16426;SDS011;8322;-33.900;151.170;2024-01-15T10:43:51;8.00;;;1.95;;
16426;SDS011;8322;-33.900;151.170;2024-01-15T10:46:24;13.65;;;2.25;;
16426;SDS011;8322;-33.900;151.170;2024-01-15T10:48:54;8.90;;;1.88;;
16426;SDS011;8322;-33.900;151.170;2024-01-15T10:51:24;13.57;;;2.03;;
16426;SDS011;8322;-33.900;151.170;2024-01-15T10:53:54;16.73;;;2.53;;
16426;SDS011;8322;-33.900;151.170;2024-01-15T10:56:24;12.18;;;2.03;;
16426;SDS011;8322;-33.900;151.170;2024-01-15T10:58:55;11.07;;;1.92;;
16426;SDS011;8322;-33.900;151.170;2024-01-15T11:01:27;13.30;;;2.38;;
16426;SDS011;8322;-33.900;151.170;2024-01-15T11:03:57;15.55;;;2.20;;
16426;SDS011;8322;-33.900;151.170;2024-01-15T11:06:26;9.27;;;1.58;;
16426;SDS011;8322;-33.900;151.170;2024-01-15T11:08:57;9.82;;;1.83;;
16426;SDS011;8322;-33.900;151.170;2024-01-15T11:11:26;9.35;;;1.80;;
16426;SDS011;8322;-33.900;151.170;2024-01-15T11:13:56;11.13;;;2.08;;
16426;SDS011;8322;-33.900;151.170;2024-01-15T11:16:28;11.30;;;2.28;;
16426;SDS011;8322;-33.900;151.170;2024-01-15T11:19:17;10.32;;;1.83;;
16426;SDS011;8322;-33.900;151.170;2024-01-15T11:21:48;13.82;;;2.30;;
16426;SDS011;8322;-33.900;151.170;2024-01-15T11:24:36;9.18;;;2.00;;
16426;SDS011;8322;-33.900;151.170;2024-01-15T11:27:06;15.55;;;2.15;;
16426;SDS011;8322;-33.900;151.170;2024-01-15T11:29:36;17.27;;;2.33;;
16426;SDS011;8322;-33.900;151.170;2024-01-15T11:32:08;12.50;;;2.00;;
16426;SDS011;8322;-33.900;151.170;2024-01-15T11:37:28;11.68;;;1.85;;
16426;SDS011;8322;-33.900;151.170;2024-01-15T11:40:01;12.93;;;2.20;;
16426;SDS011;8322;-33.900;151.170;2024-01-15T11:42:36;16.65;;;2.33;;
16426;SDS011;8322;-33.900;151.170;2024-01-15T11:45:06;10.43;;;2.15;;
16426;SDS011;8322;-33.900;151.170;2024-01-15T11:50:24;9.95;;;1.70;;
16426;SDS011;8322;-33.900;151.170;2024-01-15T11:52:56;11.07;;;2.28;;
16426;SDS011;8322;-33.900;151.170;2024-01-15T11:55:29;11.60;;;2.03;;
16426;SDS011;8322;-33.900;151.170;2024-01-15T11:58:00;10.65;;;2.15;;
16426;SDS011;8322;-33.900;151.170;2024-01-15T12:00:31;16.60;;;2.40;;
16426;SDS011;8322;-33.900;151.170;2024-01-15T12:03:01;14.60;;;2.40;;
16426;SDS011;8322;-33.900;151.170;2024-01-15T12:05:32;14.77;;;2.40;;
16426;SDS011;8322;-33.900;151.170;2024-01-15T12:08:01;16.98;;;2.50;;
16426;SDS011;8322;-33.900;151.170;2024-01-15T12:10:36;15.82;;;2.42;;
16426;SDS011;8322;-33.900;151.170;2024-01-15T12:13:09;14.82;;;2.30;;
16426;SDS011;8322;-33.900;151.170;2024-01-15T12:15:38;12.07;;;1.90;;
16426;SDS011;8322;-33.900;151.170;2024-01-15T12:18:09;17.33;;;2.40;;
16426;SDS011;8322;-33.900;151.170;2024-01-15T12:20:40;12.52;;;2.30;;
16426;SDS011;8322;-33.900;151.170;2024-01-15T12:23:10;15.80;;;2.35;;
16426;SDS011;8322;-33.900;151.170;2024-01-15T12:25:40;15.02;;;2.53;;
16426;SDS011;8322;-33.900;151.170;2024-01-15T12:28:09;14.70;;;2.25;;
16426;SDS011;8322;-33.900;151.170;2024-01-15T12:30:39;11.00;;;1.80;;
16426;SDS011;8322;-33.900;151.170;2024-01-15T12:33:09;13.40;;;1.98;;
16426;SDS011;8322;-33.900;151.170;2024-01-15T12:35:40;17.05;;;2.85;;
16426;SDS011;8322;-33.900;151.170;2024-01-15T12:38:10;14.43;;;2.22;;
16426;SDS011;8322;-33.900;151.170;2024-01-15T12:40:39;11.85;;;2.17;;
16426;SDS011;8322;-33.900;151.170;2024-01-15T12:43:09;14.85;;;2.47;;
16426;SDS011;8322;-33.900;151.170;2024-01-15T12:45:40;12.82;;;2.47;;
16426;SDS011;8322;-33.900;151.170;2024-01-15T12:48:09;12.75;;;2.38;;
16426;SDS011;8322;-33.900;151.170;2024-01-15T12:50:42;12.98;;;2.55;;
16426;SDS011;8322;-33.900;151.170;2024-01-15T12:53:13;17.08;;;2.67;;
16426;SDS011;8322;-33.900;151.170;2024-01-15T12:55:43;12.50;;;2.30;;
16426;SDS011;8322;-33.900;151.170;2024-01-15T12:58:12;14.57;;;2.50;;
16426;SDS011;8322;-33.900;151.170;2024-01-15T13:00:42;11.77;;;2.05;;
16426;SDS011;8322;-33.900;151.170;2024-01-15T13:03:13;11.70;;;2.10;;
16426;SDS011;8322;-33.900;151.170;2024-01-15T13:05:44;13.30;;;2.13;;
16426;SDS011;8322;-33.900;151.170;2024-01-15T13:08:15;13.82;;;2.67;;
16426;SDS011;8322;-33.900;151.170;2024-01-15T13:10:44;17.35;;;2.58;;
16426;SDS011;8322;-33.900;151.170;2024-01-15T13:13:14;13.70;;;2.17;;
16426;SDS011;8322;-33.900;151.170;2024-01-15T13:15:43;14.18;;;2.67;;
16426;SDS011;8322;-33.900;151.170;2024-01-15T13:18:13;14.20;;;2.38;;
16426;SDS011;8322;-33.900;151.170;2024-01-15T13:20:44;11.93;;;2.13;;
16426;SDS011;8322;-33.900;151.170;2024-01-15T13:23:14;18.02;;;2.40;;
16426;SDS011;8322;-33.900;151.170;2024-01-15T13:25:44;15.75;;;2.30;;
16426;SDS011;8322;-33.900;151.170;2024-01-15T13:28:13;13.75;;;2.45;;
16426;SDS011;8322;-33.900;151.170;2024-01-15T13:30:42;16.77;;;2.22;;
16426;SDS011;8322;-33.900;151.170;2024-01-15T13:33:12;11.70;;;2.40;;
16426;SDS011;8322;-33.900;151.170;2024-01-15T13:35:42;15.55;;;2.58;;
16426;SDS011;8322;-33.900;151.170;2024-01-15T13:38:13;14.48;;;2.30;;
16426;SDS011;8322;-33.900;151.170;2024-01-15T13:40:42;15.25;;;2.33;;
16426;SDS011;8322;-33.900;151.170;2024-01-15T13:43:12;17.10;;;2.53;;
16426;SDS011;8322;-33.900;151.170;2024-01-15T13:45:42;20.65;;;2.53;;
16426;SDS011;8322;-33.900;151.170;2024-01-15T13:48:12;14.68;;;2.65;;
16426;SDS011;8322;-33.900;151.170;2024-01-15T13:50:41;20.67;;;2.65;;
16426;SDS011;8322;-33.900;151.170;2024-01-15T13:53:11;14.20;;;2.40;;
16426;SDS011;8322;-33.900;151.170;2024-01-15T13:55:42;15.55;;;2.45;;
16426;SDS011;8322;-33.900;151.170;2024-01-15T13:58:12;12.52;;;2.35;;
16426;SDS011;8322;-33.900;151.170;2024-01-15T14:00:42;13.10;;;2.38;;
16426;SDS011;8322;-33.900;151.170;2024-01-15T14:03:11;12.48;;;2.08;;
16426;SDS011;8322;-33.900;151.170;2024-01-15T14:05:41;10.75;;;2.28;;
16426;SDS011;8322;-33.900;151.170;2024-01-15T14:08:10;19.08;;;2.50;;
16426;SDS011;8322;-33.900;151.170;2024-01-15T14:10:40;17.75;;;2.25;;
16426;SDS011;8322;-33.900;151.170;2024-01-15T14:13:11;17.25;;;2.33;;
16426;SDS011;8322;-33.900;151.170;2024-01-15T14:15:41;15.20;;;2.22;;
16426;SDS011;8322;-33.900;151.170;2024-01-15T14:18:10;16.15;;;2.28;;
16426;SDS011;8322;-33.900;151.170;2024-01-15T14:20:40;14.90;;;2.10;;
16426;SDS011;8322;-33.900;151.170;2024-01-15T14:23:09;14.75;;;2.38;;
16426;SDS011;8322;-33.900;151.170;2024-01-15T14:25:39;12.23;;;2.10;;
16426;SDS011;8322;-33.900;151.170;2024-01-15T14:28:08;16.67;;;2.45;;
16426;SDS011;8322;-33.900;151.170;2024-01-15T14:30:40;14.63;;;2.30;;
16426;SDS011;8322;-33.900;151.170;2024-01-15T14:33:09;10.98;;;1.95;;
16426;SDS011;8322;-33.900;151.170;2024-01-15T14:35:39;10.93;;;2.00;;
16426;SDS011;8322;-33.900;151.170;2024-01-15T14:38:08;17.27;;;2.30;;
16426;SDS011;8322;-33.900;151.170;2024-01-15T14:40:38;17.20;;;2.28;;
16426;SDS011;8322;-33.900;151.170;2024-01-15T14:43:08;14.70;;;2.35;;
16426;SDS011;8322;-33.900;151.170;2024-01-15T14:45:37;16.85;;;2.30;;
16426;SDS011;8322;-33.900;151.170;2024-01-15T14:48:08;15.23;;;2.40;;
16426;SDS011;8322;-33.900;151.170;2024-01-15T14:50:39;16.60;;;2.67;;
16426;SDS011;8322;-33.900;151.170;2024-01-15T14:53:08;15.18;;;2.00;;
16426;SDS011;8322;-33.900;151.170;2024-01-15T14:55:38;17.90;;;2.20;;
16426;SDS011;8322;-33.900;151.170;2024-01-15T14:58:07;11.32;;;2.20;;
16426;SDS011;8322;-33.900;151.170;2024-01-15T15:00:37;13.35;;;2.03;;
16426;SDS011;8322;-33.900;151.170;2024-01-15T15:03:08;11.90;;;1.73;;
16426;SDS011;8322;-33.900;151.170;2024-01-15T15:05:39;11.23;;;1.95;;
16426;SDS011;8322;-33.900;151.170;2024-01-15T15:08:09;13.43;;;2.33;;
16426;SDS011;8322;-33.900;151.170;2024-01-15T15:10:38;15.88;;;2.58;;
16426;SDS011;8322;-33.900;151.170;2024-01-15T15:13:08;10.45;;;1.70;;
16426;SDS011;8322;-33.900;151.170;2024-01-15T15:15:37;13.95;;;2.10;;
16426;SDS011;8322;-33.900;151.170;2024-01-15T15:18:09;8.90;;;1.85;;
16426;SDS011;8322;-33.900;151.170;2024-01-15T15:20:38;14.30;;;2.20;;
16426;SDS011;8322;-33.900;151.170;2024-01-15T15:23:08;13.77;;;2.03;;
16426;SDS011;8322;-33.900;151.170;2024-01-15T15:25:37;9.70;;;1.92;;
16426;SDS011;8322;-33.900;151.170;2024-01-15T15:28:09;14.85;;;2.38;;
16426;SDS011;8322;-33.900;151.170;2024-01-15T15:30:38;9.82;;;2.10;;
16426;SDS011;8322;-33.900;151.170;2024-01-15T15:33:09;14.85;;;2.00;;
16426;SDS011;8322;-33.900;151.170;2024-01-15T15:35:39;16.00;;;2.20;;
16426;SDS011;8322;-33.900;151.170;2024-01-15T15:38:08;18.42;;;2.60;;
16426;SDS011;8322;-33.900;151.170;2024-01-15T15:40:38;13.65;;;2.20;;
16426;SDS011;8322;-33.900;151.170;2024-01-15T15:43:07;9.75;;;1.77;;
16426;SDS011;8322;-33.900;151.170;2024-01-15T15:45:36;11.45;;;1.85;;
16426;SDS011;8322;-33.900;151.170;2024-01-15T15:48:06;14.18;;;2.25;;
16426;SDS011;8322;-33.900;151.170;2024-01-15T15:50:37;12.18;;;2.00;;
16426;SDS011;8322;-33.900;151.170;2024-01-15T15:53:07;10.68;;;1.65;;
16426;SDS011;8322;-33.900;151.170;2024-01-15T15:55:37;17.77;;;2.10;;
16426;SDS011;8322;-33.900;151.170;2024-01-15T15:58:06;14.63;;;2.42;;
16426;SDS011;8322;-33.900;151.170;2024-01-15T16:00:36;20.42;;;2.55;;
16426;SDS011;8322;-33.900;151.170;2024-01-15T16:03:05;14.52;;;2.40;;
16426;SDS011;8322;-33.900;151.170;2024-01-15T16:05:35;13.82;;;2.33;;
16426;SDS011;8322;-33.900;151.170;2024-01-15T16:08:06;13.85;;;2.22;;
16426;SDS011;8322;-33.900;151.170;2024-01-15T16:10:35;14.77;;;2.55;;
16426;SDS011;8322;-33.900;151.170;2024-01-15T16:13:05;18.65;;;2.45;;
16426;SDS011;8322;-33.900;151.170;2024-01-15T16:15:34;14.82;;;2.28;;
16426;SDS011;8322;-33.900;151.170;2024-01-15T16:18:04;19.15;;;2.97;;
16426;SDS011;8322;-33.900;151.170;2024-01-15T16:20:34;18.17;;;2.70;;
16426;SDS011;8322;-33.900;151.170;2024-01-15T16:23:05;18.98;;;2.80;;
16426;SDS011;8322;-33.900;151.170;2024-01-15T16:25:35;19.27;;;2.30;;
16426;SDS011;8322;-33.900;151.170;2024-01-15T16:28:05;17.45;;;2.80;;
16426;SDS011;8322;-33.900;151.170;2024-01-15T16:30:35;16.13;;;2.38;;
16426;SDS011;8322;-33.900;151.170;2024-01-15T16:33:04;20.48;;;2.75;;
16426;SDS011;8322;-33.900;151.170;2024-01-15T16:35:35;14.23;;;2.63;;
16426;SDS011;8322;-33.900;151.170;2024-01-15T16:38:07;14.43;;;2.40;;
16426;SDS011;8322;-33.900;151.170;2024-01-15T16:40:37;18.95;;;2.67;;
16426;SDS011;8322;-33.900;151.170;2024-01-15T16:43:07;16.90;;;2.47;;
16426;SDS011;8322;-33.900;151.170;2024-01-15T16:45:36;13.70;;;2.45;;
16426;SDS011;8322;-33.900;151.170;2024-01-15T16:48:06;18.55;;;2.58;;
16426;SDS011;8322;-33.900;151.170;2024-01-15T16:50:35;19.48;;;2.72;;
16426;SDS011;8322;-33.900;151.170;2024-01-15T16:53:07;17.83;;;2.53;;
16426;SDS011;8322;-33.900;151.170;2024-01-15T16:55:36;20.73;;;3.13;;
16426;SDS011;8322;-33.900;151.170;2024-01-15T16:58:06;16.92;;;2.85;;
16426;SDS011;8322;-33.900;151.170;2024-01-15T17:00:35;15.13;;;2.35;;
16426;SDS011;8322;-33.900;151.170;2024-01-15T17:03:05;15.20;;;2.60;;
16426;SDS011;8322;-33.900;151.170;2024-01-15T17:05:34;12.48;;;2.28;;